Terminal Aerodrome Forecast
Issued by NWS Cleveland, OH

Home | Current Version | Previous Version | Graphics & Text | Print | Product List | Glossary On
Versions: 1 2 3 4 5 6 7 8 9 10 11 12 13 14 15 16 17 18
000
FTUS41 KCLE 030520
TAFMFD
TAF
KMFD 030520Z 0306/0406 03005KT P6SM SCT045 BKN250
      TEMPO 0306/0310 BKN045
     FM031000 06005KT 6SM BR SCT045 BKN250
      TEMPO 0310/0313 4SM BR
     FM031300 08007KT P6SM BKN250
     FM031900 08007KT P6SM VCSH SCT045 OVC120
      TEMPO 0320/0324 BKN045
     FM040200 02004KT P6SM SCT250=

USA.gov is the U.S. government's official web portal to all federal, state and local government web resources and services.